sensor_id;sensor_type;location;lat;lon;timestamp;P1;durP1;ratioP1;P2;durP2;ratioP2
17251;SDS011;8742;51.716;8.790;2022-11-20T00:01:09;24.63;;;11.07;;
17251;SDS011;8742;51.716;8.790;2022-11-20T00:03:38;25.20;;;11.87;;
17251;SDS011;8742;51.716;8.790;2022-11-20T00:06:05;24.60;;;11.87;;
17251;SDS011;8742;51.716;8.790;2022-11-20T00:08:36;23.40;;;11.03;;
17251;SDS011;8742;51.716;8.790;2022-11-20T00:11:03;24.60;;;11.07;;
17251;SDS011;8742;51.716;8.790;2022-11-20T00:13:31;27.40;;;12.73;;
17251;SDS011;8742;51.716;8.790;2022-11-20T00:15:58;33.63;;;13.03;;
17251;SDS011;8742;51.716;8.790;2022-11-20T00:18:26;32.53;;;13.57;;
17251;SDS011;8742;51.716;8.790;2022-11-20T00:20:53;30.03;;;13.17;;
17251;SDS011;8742;51.716;8.790;2022-11-20T00:23:26;33.53;;;14.77;;
17251;SDS011;8742;51.716;8.790;2022-11-20T00:25:54;31.27;;;13.60;;
17251;SDS011;8742;51.716;8.790;2022-11-20T00:28:20;30.50;;;13.07;;
17251;SDS011;8742;51.716;8.790;2022-11-20T00:30:47;31.03;;;13.00;;
17251;SDS011;8742;51.716;8.790;2022-11-20T00:33:14;28.93;;;12.70;;
17251;SDS011;8742;51.716;8.790;2022-11-20T00:35:41;27.17;;;11.87;;
17251;SDS011;8742;51.716;8.790;2022-11-20T00:38:08;27.77;;;11.23;;
17251;SDS011;8742;51.716;8.790;2022-11-20T00:40:34;25.00;;;10.63;;
17251;SDS011;8742;51.716;8.790;2022-11-20T00:43:02;18.33;;;9.80;;
17251;SDS011;8742;51.716;8.790;2022-11-20T00:45:29;20.37;;;9.90;;
17251;SDS011;8742;51.716;8.790;2022-11-20T00:47:56;23.00;;;10.77;;
17251;SDS011;8742;51.716;8.790;2022-11-20T00:50:23;19.13;;;9.30;;
17251;SDS011;8742;51.716;8.790;2022-11-20T00:52:50;20.43;;;9.47;;
17251;SDS011;8742;51.716;8.790;2022-11-20T00:55:16;21.73;;;9.53;;
17251;SDS011;8742;51.716;8.790;2022-11-20T00:57:43;19.20;;;9.50;;
17251;SDS011;8742;51.716;8.790;2022-11-20T01:00:12;20.00;;;9.37;;
17251;SDS011;8742;51.716;8.790;2022-11-20T01:02:39;20.23;;;8.77;;
17251;SDS011;8742;51.716;8.790;2022-11-20T01:05:06;22.47;;;9.07;;
17251;SDS011;8742;51.716;8.790;2022-11-20T01:07:33;20.27;;;8.63;;
17251;SDS011;8742;51.716;8.790;2022-11-20T01:09:59;19.90;;;9.47;;
17251;SDS011;8742;51.716;8.790;2022-11-20T01:12:26;17.63;;;8.70;;
17251;SDS011;8742;51.716;8.790;2022-11-20T01:14:53;18.43;;;8.20;;
17251;SDS011;8742;51.716;8.790;2022-11-20T01:17:21;18.67;;;8.43;;
17251;SDS011;8742;51.716;8.790;2022-11-20T01:19:48;18.40;;;8.43;;
17251;SDS011;8742;51.716;8.790;2022-11-20T01:22:15;16.07;;;8.07;;
17251;SDS011;8742;51.716;8.790;2022-11-20T01:24:42;24.93;;;8.77;;
17251;SDS011;8742;51.716;8.790;2022-11-20T01:27:09;19.10;;;8.50;;
17251;SDS011;8742;51.716;8.790;2022-11-20T01:29:36;20.43;;;9.27;;
17251;SDS011;8742;51.716;8.790;2022-11-20T01:32:03;17.47;;;8.50;;
17251;SDS011;8742;51.716;8.790;2022-11-20T01:34:32;18.33;;;8.97;;
17251;SDS011;8742;51.716;8.790;2022-11-20T01:36:58;16.00;;;8.10;;
17251;SDS011;8742;51.716;8.790;2022-11-20T01:39:26;18.07;;;8.37;;
17251;SDS011;8742;51.716;8.790;2022-11-20T01:41:53;17.33;;;9.03;;
17251;SDS011;8742;51.716;8.790;2022-11-20T01:44:43;18.80;;;8.77;;
17251;SDS011;8742;51.716;8.790;2022-11-20T01:47:16;17.53;;;8.87;;
17251;SDS011;8742;51.716;8.790;2022-11-20T01:49:48;18.90;;;9.37;;
17251;SDS011;8742;51.716;8.790;2022-11-20T01:52:18;20.20;;;8.37;;
17251;SDS011;8742;51.716;8.790;2022-11-20T01:54:48;22.83;;;8.77;;
17251;SDS011;8742;51.716;8.790;2022-11-20T01:57:20;17.63;;;8.50;;
17251;SDS011;8742;51.716;8.790;2022-11-20T01:59:53;19.47;;;8.33;;
17251;SDS011;8742;51.716;8.790;2022-11-20T02:02:25;15.23;;;7.63;;
17251;SDS011;8742;51.716;8.790;2022-11-20T02:04:55;16.27;;;8.13;;
17251;SDS011;8742;51.716;8.790;2022-11-20T02:07:26;15.93;;;7.77;;
17251;SDS011;8742;51.716;8.790;2022-11-20T02:09:54;15.93;;;7.77;;
17251;SDS011;8742;51.716;8.790;2022-11-20T02:12:21;16.40;;;7.73;;
17251;SDS011;8742;51.716;8.790;2022-11-20T02:15:05;15.13;;;7.77;;
17251;SDS011;8742;51.716;8.790;2022-11-20T02:17:33;18.27;;;8.17;;
17251;SDS011;8742;51.716;8.790;2022-11-20T02:20:01;19.47;;;7.93;;
17251;SDS011;8742;51.716;8.790;2022-11-20T02:22:28;18.13;;;7.67;;
17251;SDS011;8742;51.716;8.790;2022-11-20T02:25:02;16.43;;;7.10;;
17251;SDS011;8742;51.716;8.790;2022-11-20T02:27:29;17.53;;;8.00;;
17251;SDS011;8742;51.716;8.790;2022-11-20T02:29:57;18.80;;;7.60;;
17251;SDS011;8742;51.716;8.790;2022-11-20T02:32:27;17.80;;;8.17;;
17251;SDS011;8742;51.716;8.790;2022-11-20T02:34:55;18.57;;;8.27;;
17251;SDS011;8742;51.716;8.790;2022-11-20T02:37:23;15.97;;;7.73;;
17251;SDS011;8742;51.716;8.790;2022-11-20T02:39:56;17.53;;;8.10;;
17251;SDS011;8742;51.716;8.790;2022-11-20T02:42:25;17.73;;;7.97;;
17251;SDS011;8742;51.716;8.790;2022-11-20T02:44:51;20.33;;;9.20;;
17251;SDS011;8742;51.716;8.790;2022-11-20T02:47:18;17.23;;;7.97;;
17251;SDS011;8742;51.716;8.790;2022-11-20T02:49:45;16.97;;;7.90;;
17251;SDS011;8742;51.716;8.790;2022-11-20T02:52:12;14.60;;;7.60;;
17251;SDS011;8742;51.716;8.790;2022-11-20T02:54:39;18.10;;;7.90;;
17251;SDS011;8742;51.716;8.790;2022-11-20T02:57:05;15.57;;;8.07;;
17251;SDS011;8742;51.716;8.790;2022-11-20T02:59:33;17.57;;;7.77;;
17251;SDS011;8742;51.716;8.790;2022-11-20T03:02:00;17.20;;;7.50;;
17251;SDS011;8742;51.716;8.790;2022-11-20T03:04:27;16.03;;;7.63;;
17251;SDS011;8742;51.716;8.790;2022-11-20T03:06:54;17.87;;;7.30;;
17251;SDS011;8742;51.716;8.790;2022-11-20T03:09:21;19.20;;;8.10;;
17251;SDS011;8742;51.716;8.790;2022-11-20T03:11:47;16.90;;;7.93;;
17251;SDS011;8742;51.716;8.790;2022-11-20T03:14:14;15.43;;;7.27;;
17251;SDS011;8742;51.716;8.790;2022-11-20T03:16:43;15.40;;;7.50;;
17251;SDS011;8742;51.716;8.790;2022-11-20T03:19:10;17.07;;;7.03;;
17251;SDS011;8742;51.716;8.790;2022-11-20T03:21:37;20.00;;;6.87;;
17251;SDS011;8742;51.716;8.790;2022-11-20T03:24:05;14.53;;;6.83;;
17251;SDS011;8742;51.716;8.790;2022-11-20T03:26:32;17.27;;;6.67;;
17251;SDS011;8742;51.716;8.790;2022-11-20T03:28:59;15.93;;;7.10;;
17251;SDS011;8742;51.716;8.790;2022-11-20T03:31:28;13.23;;;6.33;;
17251;SDS011;8742;51.716;8.790;2022-11-20T03:33:58;13.77;;;6.77;;
17251;SDS011;8742;51.716;8.790;2022-11-20T03:36:25;12.37;;;6.43;;
17251;SDS011;8742;51.716;8.790;2022-11-20T03:38:53;14.10;;;6.77;;
17251;SDS011;8742;51.716;8.790;2022-11-20T03:41:22;16.77;;;6.57;;
17251;SDS011;8742;51.716;8.790;2022-11-20T03:43:50;14.27;;;6.43;;
17251;SDS011;8742;51.716;8.790;2022-11-20T03:46:18;11.70;;;6.17;;
17251;SDS011;8742;51.716;8.790;2022-11-20T03:48:46;13.03;;;5.70;;
17251;SDS011;8742;51.716;8.790;2022-11-20T03:51:15;13.30;;;6.40;;
17251;SDS011;8742;51.716;8.790;2022-11-20T03:53:43;14.37;;;6.00;;
17251;SDS011;8742;51.716;8.790;2022-11-20T03:56:13;14.40;;;6.03;;
17251;SDS011;8742;51.716;8.790;2022-11-20T03:58:42;11.77;;;6.03;;
17251;SDS011;8742;51.716;8.790;2022-11-20T04:01:10;16.77;;;6.83;;
17251;SDS011;8742;51.716;8.790;2022-11-20T04:03:39;12.67;;;6.30;;
17251;SDS011;8742;51.716;8.790;2022-11-20T04:06:08;13.23;;;6.63;;
17251;SDS011;8742;51.716;8.790;2022-11-20T04:08:38;12.47;;;6.23;;
17251;SDS011;8742;51.716;8.790;2022-11-20T04:11:09;14.33;;;6.10;;
17251;SDS011;8742;51.716;8.790;2022-11-20T04:13:37;12.97;;;6.40;;
17251;SDS011;8742;51.716;8.790;2022-11-20T04:16:04;15.53;;;6.90;;
17251;SDS011;8742;51.716;8.790;2022-11-20T04:18:31;11.40;;;5.97;;
17251;SDS011;8742;51.716;8.790;2022-11-20T04:20:58;13.43;;;6.70;;
17251;SDS011;8742;51.716;8.790;2022-11-20T04:23:25;12.43;;;6.67;;
17251;SDS011;8742;51.716;8.790;2022-11-20T04:25:54;12.57;;;6.53;;
17251;SDS011;8742;51.716;8.790;2022-11-20T04:28:26;14.30;;;6.40;;
17251;SDS011;8742;51.716;8.790;2022-11-20T04:30:53;11.77;;;6.20;;
17251;SDS011;8742;51.716;8.790;2022-11-20T04:33:19;14.93;;;6.67;;
17251;SDS011;8742;51.716;8.790;2022-11-20T04:35:46;12.73;;;5.80;;
17251;SDS011;8742;51.716;8.790;2022-11-20T04:38:14;14.10;;;6.93;;
17251;SDS011;8742;51.716;8.790;2022-11-20T04:40:41;12.67;;;6.53;;
17251;SDS011;8742;51.716;8.790;2022-11-20T04:43:09;13.07;;;6.57;;
17251;SDS011;8742;51.716;8.790;2022-11-20T04:45:35;16.40;;;6.17;;
17251;SDS011;8742;51.716;8.790;2022-11-20T04:48:02;15.07;;;6.80;;
17251;SDS011;8742;51.716;8.790;2022-11-20T04:50:30;11.17;;;6.00;;
17251;SDS011;8742;51.716;8.790;2022-11-20T04:52:56;14.40;;;7.27;;
17251;SDS011;8742;51.716;8.790;2022-11-20T04:55:23;18.57;;;7.17;;
17251;SDS011;8742;51.716;8.790;2022-11-20T04:57:50;15.10;;;6.87;;
17251;SDS011;8742;51.716;8.790;2022-11-20T05:00:18;14.70;;;6.80;;
17251;SDS011;8742;51.716;8.790;2022-11-20T05:02:45;13.93;;;6.73;;
17251;SDS011;8742;51.716;8.790;2022-11-20T05:05:12;15.43;;;6.97;;
17251;SDS011;8742;51.716;8.790;2022-11-20T05:07:39;13.93;;;6.50;;
17251;SDS011;8742;51.716;8.790;2022-11-20T05:10:09;12.73;;;6.47;;
17251;SDS011;8742;51.716;8.790;2022-11-20T05:12:36;11.00;;;6.13;;
17251;SDS011;8742;51.716;8.790;2022-11-20T05:18:28;16.90;;;7.10;;
17251;SDS011;8742;51.716;8.790;2022-11-20T05:20:55;13.10;;;6.47;;
17251;SDS011;8742;51.716;8.790;2022-11-20T05:23:24;18.13;;;7.03;;
17251;SDS011;8742;51.716;8.790;2022-11-20T05:25:54;24.30;;;9.00;;
17251;SDS011;8742;51.716;8.790;2022-11-20T05:28:32;18.80;;;8.63;;
17251;SDS011;8742;51.716;8.790;2022-11-20T05:31:03;21.60;;;9.07;;
17251;SDS011;8742;51.716;8.790;2022-11-20T05:33:36;22.40;;;9.30;;
17251;SDS011;8742;51.716;8.790;2022-11-20T05:36:06;25.20;;;9.20;;
17251;SDS011;8742;51.716;8.790;2022-11-20T05:38:37;21.10;;;8.90;;
17251;SDS011;8742;51.716;8.790;2022-11-20T05:41:05;24.83;;;9.27;;
17251;SDS011;8742;51.716;8.790;2022-11-20T05:43:33;22.60;;;10.10;;
17251;SDS011;8742;51.716;8.790;2022-11-20T05:46:01;23.87;;;10.03;;
17251;SDS011;8742;51.716;8.790;2022-11-20T05:48:29;23.83;;;10.00;;
17251;SDS011;8742;51.716;8.790;2022-11-20T05:50:58;20.00;;;8.80;;
17251;SDS011;8742;51.716;8.790;2022-11-20T05:53:40;18.70;;;8.53;;
17251;SDS011;8742;51.716;8.790;2022-11-20T05:56:08;17.57;;;7.97;;
17251;SDS011;8742;51.716;8.790;2022-11-20T05:58:37;18.13;;;7.67;;
17251;SDS011;8742;51.716;8.790;2022-11-20T06:01:06;14.30;;;7.50;;
17251;SDS011;8742;51.716;8.790;2022-11-20T06:03:37;16.30;;;7.47;;
17251;SDS011;8742;51.716;8.790;2022-11-20T06:06:06;14.57;;;7.20;;
17251;SDS011;8742;51.716;8.790;2022-11-20T06:08:33;14.50;;;7.03;;
17251;SDS011;8742;51.716;8.790;2022-11-20T06:11:04;17.10;;;7.10;;
17251;SDS011;8742;51.716;8.790;2022-11-20T06:13:45;14.90;;;7.50;;
17251;SDS011;8742;51.716;8.790;2022-11-20T06:16:15;17.37;;;7.80;;
17251;SDS011;8742;51.716;8.790;2022-11-20T06:18:55;11.33;;;6.73;;
17251;SDS011;8742;51.716;8.790;2022-11-20T06:21:24;16.67;;;7.77;;
17251;SDS011;8742;51.716;8.790;2022-11-20T06:23:51;15.90;;;7.87;;
17251;SDS011;8742;51.716;8.790;2022-11-20T06:26:19;19.83;;;8.10;;
17251;SDS011;8742;51.716;8.790;2022-11-20T06:28:47;15.43;;;8.20;;
17251;SDS011;8742;51.716;8.790;2022-11-20T06:31:16;14.33;;;7.27;;
17251;SDS011;8742;51.716;8.790;2022-11-20T06:33:46;15.03;;;6.90;;
17251;SDS011;8742;51.716;8.790;2022-11-20T06:36:14;22.47;;;7.70;;
17251;SDS011;8742;51.716;8.790;2022-11-20T06:38:47;15.40;;;7.17;;
17251;SDS011;8742;51.716;8.790;2022-11-20T06:41:16;15.43;;;7.33;;
17251;SDS011;8742;51.716;8.790;2022-11-20T06:43:44;13.63;;;7.27;;
17251;SDS011;8742;51.716;8.790;2022-11-20T06:46:12;15.30;;;8.00;;
17251;SDS011;8742;51.716;8.790;2022-11-20T06:48:40;17.17;;;8.03;;
17251;SDS011;8742;51.716;8.790;2022-11-20T06:51:27;12.93;;;6.97;;
17251;SDS011;8742;51.716;8.790;2022-11-20T06:53:56;16.73;;;7.87;;
17251;SDS011;8742;51.716;8.790;2022-11-20T06:56:23;17.37;;;7.80;;
17251;SDS011;8742;51.716;8.790;2022-11-20T06:58:50;14.30;;;7.30;;
17251;SDS011;8742;51.716;8.790;2022-11-20T07:01:17;14.87;;;8.23;;
17251;SDS011;8742;51.716;8.790;2022-11-20T07:03:44;15.67;;;7.43;;
17251;SDS011;8742;51.716;8.790;2022-11-20T07:06:11;14.63;;;7.70;;
17251;SDS011;8742;51.716;8.790;2022-11-20T07:08:38;14.10;;;8.03;;
17251;SDS011;8742;51.716;8.790;2022-11-20T07:11:06;19.23;;;8.93;;
17251;SDS011;8742;51.716;8.790;2022-11-20T07:13:34;15.47;;;7.73;;
17251;SDS011;8742;51.716;8.790;2022-11-20T07:16:02;17.60;;;7.80;;
17251;SDS011;8742;51.716;8.790;2022-11-20T07:18:30;15.90;;;8.30;;
17251;SDS011;8742;51.716;8.790;2022-11-20T07:20:59;18.63;;;8.57;;
17251;SDS011;8742;51.716;8.790;2022-11-20T07:23:26;18.50;;;8.23;;
17251;SDS011;8742;51.716;8.790;2022-11-20T07:25:53;18.03;;;8.77;;
17251;SDS011;8742;51.716;8.790;2022-11-20T07:28:22;17.30;;;7.40;;
17251;SDS011;8742;51.716;8.790;2022-11-20T07:30:52;14.20;;;8.07;;
17251;SDS011;8742;51.716;8.790;2022-11-20T07:33:20;19.67;;;8.70;;
17251;SDS011;8742;51.716;8.790;2022-11-20T07:35:46;17.67;;;8.43;;
17251;SDS011;8742;51.716;8.790;2022-11-20T07:38:13;16.87;;;8.30;;
17251;SDS011;8742;51.716;8.790;2022-11-20T07:40:40;16.20;;;8.10;;
17251;SDS011;8742;51.716;8.790;2022-11-20T07:43:07;16.10;;;8.07;;
17251;SDS011;8742;51.716;8.790;2022-11-20T07:45:35;20.57;;;8.90;;
17251;SDS011;8742;51.716;8.790;2022-11-20T07:48:02;17.50;;;9.23;;
17251;SDS011;8742;51.716;8.790;2022-11-20T07:50:30;15.87;;;8.67;;
17251;SDS011;8742;51.716;8.790;2022-11-20T07:53:00;17.13;;;8.43;;
17251;SDS011;8742;51.716;8.790;2022-11-20T07:55:28;16.70;;;8.43;;
17251;SDS011;8742;51.716;8.790;2022-11-20T07:57:58;22.07;;;9.53;;
17251;SDS011;8742;51.716;8.790;2022-11-20T08:00:26;17.30;;;8.80;;
17251;SDS011;8742;51.716;8.790;2022-11-20T08:02:55;18.27;;;9.00;;
17251;SDS011;8742;51.716;8.790;2022-11-20T08:05:21;18.07;;;8.43;;
17251;SDS011;8742;51.716;8.790;2022-11-20T08:08:00;17.77;;;8.93;;
17251;SDS011;8742;51.716;8.790;2022-11-20T08:10:32;15.90;;;7.87;;
17251;SDS011;8742;51.716;8.790;2022-11-20T08:12:59;17.17;;;8.30;;
17251;SDS011;8742;51.716;8.790;2022-11-20T08:15:52;18.43;;;8.50;;
17251;SDS011;8742;51.716;8.790;2022-11-20T08:18:20;16.57;;;7.67;;
17251;SDS011;8742;51.716;8.790;2022-11-20T08:20:49;17.97;;;8.00;;
17251;SDS011;8742;51.716;8.790;2022-11-20T08:23:16;11.83;;;6.80;;
17251;SDS011;8742;51.716;8.790;2022-11-20T08:25:43;12.30;;;6.57;;
17251;SDS011;8742;51.716;8.790;2022-11-20T08:28:16;12.53;;;6.07;;
17251;SDS011;8742;51.716;8.790;2022-11-20T08:30:43;11.70;;;6.53;;
17251;SDS011;8742;51.716;8.790;2022-11-20T08:33:10;10.70;;;5.97;;
17251;SDS011;8742;51.716;8.790;2022-11-20T08:35:39;15.13;;;6.87;;
17251;SDS011;8742;51.716;8.790;2022-11-20T08:38:06;16.87;;;7.17;;
17251;SDS011;8742;51.716;8.790;2022-11-20T08:40:34;12.53;;;6.67;;
17251;SDS011;8742;51.716;8.790;2022-11-20T08:43:01;12.30;;;6.70;;
17251;SDS011;8742;51.716;8.790;2022-11-20T08:45:28;14.90;;;6.63;;
17251;SDS011;8742;51.716;8.790;2022-11-20T08:47:59;11.70;;;6.23;;
17251;SDS011;8742;51.716;8.790;2022-11-20T08:50:26;13.03;;;5.90;;
17251;SDS011;8742;51.716;8.790;2022-11-20T08:52:54;13.63;;;5.33;;
17251;SDS011;8742;51.716;8.790;2022-11-20T08:55:21;12.90;;;5.83;;
17251;SDS011;8742;51.716;8.790;2022-11-20T08:57:48;12.73;;;6.03;;
17251;SDS011;8742;51.716;8.790;2022-11-20T09:00:15;13.43;;;5.97;;
17251;SDS011;8742;51.716;8.790;2022-11-20T09:02:43;10.83;;;5.70;;
17251;SDS011;8742;51.716;8.790;2022-11-20T09:05:10;13.50;;;6.33;;
17251;SDS011;8742;51.716;8.790;2022-11-20T09:07:37;13.77;;;5.67;;
17251;SDS011;8742;51.716;8.790;2022-11-20T09:10:05;14.03;;;6.50;;
17251;SDS011;8742;51.716;8.790;2022-11-20T09:12:33;15.13;;;6.63;;
17251;SDS011;8742;51.716;8.790;2022-11-20T09:15:00;16.90;;;6.27;;
17251;SDS011;8742;51.716;8.790;2022-11-20T09:17:27;16.07;;;7.87;;
17251;SDS011;8742;51.716;8.790;2022-11-20T09:19:54;14.17;;;6.70;;
17251;SDS011;8742;51.716;8.790;2022-11-20T09:22:20;15.27;;;7.60;;
17251;SDS011;8742;51.716;8.790;2022-11-20T09:24:47;18.27;;;7.73;;
17251;SDS011;8742;51.716;8.790;2022-11-20T09:27:16;20.87;;;9.27;;
17251;SDS011;8742;51.716;8.790;2022-11-20T09:29:46;18.10;;;7.97;;
17251;SDS011;8742;51.716;8.790;2022-11-20T09:32:13;16.30;;;7.93;;
17251;SDS011;8742;51.716;8.790;2022-11-20T09:34:40;19.50;;;8.20;;
17251;SDS011;8742;51.716;8.790;2022-11-20T09:37:07;17.77;;;8.27;;
17251;SDS011;8742;51.716;8.790;2022-11-20T09:39:34;14.33;;;7.57;;
17251;SDS011;8742;51.716;8.790;2022-11-20T09:42:07;14.50;;;7.07;;
17251;SDS011;8742;51.716;8.790;2022-11-20T09:44:55;15.37;;;7.43;;
17251;SDS011;8742;51.716;8.790;2022-11-20T09:47:40;19.27;;;7.70;;
17251;SDS011;8742;51.716;8.790;2022-11-20T09:50:23;13.90;;;7.57;;
17251;SDS011;8742;51.716;8.790;2022-11-20T09:52:59;14.80;;;6.87;;
17251;SDS011;8742;51.716;8.790;2022-11-20T09:55:38;13.43;;;7.17;;
17251;SDS011;8742;51.716;8.790;2022-11-20T09:58:07;17.47;;;7.20;;
17251;SDS011;8742;51.716;8.790;2022-11-20T10:00:42;13.53;;;7.33;;
17251;SDS011;8742;51.716;8.790;2022-11-20T10:03:11;11.97;;;6.97;;
17251;SDS011;8742;51.716;8.790;2022-11-20T10:05:43;15.57;;;7.40;;
17251;SDS011;8742;51.716;8.790;2022-11-20T10:08:14;14.13;;;7.07;;
17251;SDS011;8742;51.716;8.790;2022-11-20T10:10:46;13.97;;;6.83;;
17251;SDS011;8742;51.716;8.790;2022-11-20T10:13:30;13.33;;;7.23;;
17251;SDS011;8742;51.716;8.790;2022-11-20T10:16:12;12.70;;;6.83;;
17251;SDS011;8742;51.716;8.790;2022-11-20T10:18:58;12.43;;;6.43;;
17251;SDS011;8742;51.716;8.790;2022-11-20T10:21:36;12.20;;;6.30;;
17251;SDS011;8742;51.716;8.790;2022-11-20T10:24:23;10.30;;;6.40;;
17251;SDS011;8742;51.716;8.790;2022-11-20T10:27:03;12.03;;;6.20;;
17251;SDS011;8742;51.716;8.790;2022-11-20T10:29:58;12.73;;;6.73;;
17251;SDS011;8742;51.716;8.790;2022-11-20T10:32:30;10.40;;;6.67;;
17251;SDS011;8742;51.716;8.790;2022-11-20T10:35:03;11.20;;;6.37;;
17251;SDS011;8742;51.716;8.790;2022-11-20T10:37:35;14.40;;;6.70;;
17251;SDS011;8742;51.716;8.790;2022-11-20T10:40:05;12.43;;;7.00;;
17251;SDS011;8742;51.716;8.790;2022-11-20T10:42:49;13.07;;;7.30;;
17251;SDS011;8742;51.716;8.790;2022-11-20T10:45:25;9.93;;;7.33;;
17251;SDS011;8742;51.716;8.790;2022-11-20T10:48:04;10.90;;;6.97;;
17251;SDS011;8742;51.716;8.790;2022-11-20T10:50:40;13.00;;;7.80;;
17251;SDS011;8742;51.716;8.790;2022-11-20T10:53:16;11.33;;;7.10;;
17251;SDS011;8742;51.716;8.790;2022-11-20T10:55:53;11.90;;;7.53;;
17251;SDS011;8742;51.716;8.790;2022-11-20T10:58:26;10.03;;;7.63;;
17251;SDS011;8742;51.716;8.790;2022-11-20T11:01:11;12.27;;;7.80;;
17251;SDS011;8742;51.716;8.790;2022-11-20T11:03:40;12.53;;;8.10;;
17251;SDS011;8742;51.716;8.790;2022-11-20T11:06:10;15.77;;;8.60;;
17251;SDS011;8742;51.716;8.790;2022-11-20T11:08:43;12.20;;;8.03;;
17251;SDS011;8742;51.716;8.790;2022-11-20T11:11:18;15.07;;;8.67;;
17251;SDS011;8742;51.716;8.790;2022-11-20T11:13:47;9.47;;;7.53;;
17251;SDS011;8742;51.716;8.790;2022-11-20T11:19:15;11.30;;;7.67;;
17251;SDS011;8742;51.716;8.790;2022-11-20T11:21:45;10.40;;;8.17;;
17251;SDS011;8742;51.716;8.790;2022-11-20T11:24:18;13.50;;;8.40;;
17251;SDS011;8742;51.716;8.790;2022-11-20T11:26:58;13.43;;;8.40;;
17251;SDS011;8742;51.716;8.790;2022-11-20T11:29:29;13.70;;;8.37;;
17251;SDS011;8742;51.716;8.790;2022-11-20T11:32:13;13.07;;;8.90;;
17251;SDS011;8742;51.716;8.790;2022-11-20T11:34:41;12.60;;;8.03;;
17251;SDS011;8742;51.716;8.790;2022-11-20T11:37:10;12.57;;;8.87;;
17251;SDS011;8742;51.716;8.790;2022-11-20T11:39:43;12.33;;;8.77;;
17251;SDS011;8742;51.716;8.790;2022-11-20T11:42:13;13.57;;;9.93;;
17251;SDS011;8742;51.716;8.790;2022-11-20T11:44:44;16.23;;;9.70;;
17251;SDS011;8742;51.716;8.790;2022-11-20T11:47:36;19.50;;;12.63;;
17251;SDS011;8742;51.716;8.790;2022-11-20T11:50:14;13.80;;;8.80;;
17251;SDS011;8742;51.716;8.790;2022-11-20T11:52:44;16.13;;;11.03;;
17251;SDS011;8742;51.716;8.790;2022-11-20T11:55:22;11.33;;;8.37;;
17251;SDS011;8742;51.716;8.790;2022-11-20T11:57:57;12.83;;;9.23;;
17251;SDS011;8742;51.716;8.790;2022-11-20T12:00:35;15.20;;;10.67;;
17251;SDS011;8742;51.716;8.790;2022-11-20T12:03:08;12.90;;;9.13;;
17251;SDS011;8742;51.716;8.790;2022-11-20T12:05:53;11.50;;;9.37;;
17251;SDS011;8742;51.716;8.790;2022-11-20T12:08:25;14.73;;;9.67;;
17251;SDS011;8742;51.716;8.790;2022-11-20T12:10:59;12.97;;;9.00;;
17251;SDS011;8742;51.716;8.790;2022-11-20T12:13:36;15.33;;;10.20;;
17251;SDS011;8742;51.716;8.790;2022-11-20T12:16:10;12.10;;;9.17;;
17251;SDS011;8742;51.716;8.790;2022-11-20T12:21:32;15.50;;;10.30;;
17251;SDS011;8742;51.716;8.790;2022-11-20T12:24:18;18.47;;;11.70;;
17251;SDS011;8742;51.716;8.790;2022-11-20T12:30:21;17.87;;;12.50;;
17251;SDS011;8742;51.716;8.790;2022-11-20T12:36:22;23.47;;;12.47;;
17251;SDS011;8742;51.716;8.790;2022-11-20T12:39:42;15.13;;;11.63;;
17251;SDS011;8742;51.716;8.790;2022-11-20T12:42:25;14.27;;;9.00;;
17251;SDS011;8742;51.716;8.790;2022-11-20T12:48:24;14.10;;;7.97;;
17251;SDS011;8742;51.716;8.790;2022-11-20T12:51:12;16.13;;;7.67;;
17251;SDS011;8742;51.716;8.790;2022-11-20T12:57:09;12.67;;;8.13;;
17251;SDS011;8742;51.716;8.790;2022-11-20T12:59:59;14.10;;;7.77;;
17251;SDS011;8742;51.716;8.790;2022-11-20T13:02:35;14.37;;;8.30;;
17251;SDS011;8742;51.716;8.790;2022-11-20T13:05:19;17.70;;;8.37;;
17251;SDS011;8742;51.716;8.790;2022-11-20T13:07:53;16.30;;;8.77;;
17251;SDS011;8742;51.716;8.790;2022-11-20T13:10:21;13.67;;;8.10;;
17251;SDS011;8742;51.716;8.790;2022-11-20T13:12:56;16.43;;;6.43;;
17251;SDS011;8742;51.716;8.790;2022-11-20T13:15:31;12.43;;;7.20;;
17251;SDS011;8742;51.716;8.790;2022-11-20T13:18:08;13.70;;;6.77;;
17251;SDS011;8742;51.716;8.790;2022-11-20T13:20:36;11.37;;;6.67;;
17251;SDS011;8742;51.716;8.790;2022-11-20T13:23:08;13.83;;;7.50;;
17251;SDS011;8742;51.716;8.790;2022-11-20T13:25:36;13.50;;;7.00;;
17251;SDS011;8742;51.716;8.790;2022-11-20T13:28:24;13.70;;;7.17;;
17251;SDS011;8742;51.716;8.790;2022-11-20T13:30:54;13.57;;;6.97;;
17251;SDS011;8742;51.716;8.790;2022-11-20T13:33:22;10.57;;;6.90;;
17251;SDS011;8742;51.716;8.790;2022-11-20T13:35:55;13.03;;;6.83;;
17251;SDS011;8742;51.716;8.790;2022-11-20T13:38:22;12.93;;;6.77;;
17251;SDS011;8742;51.716;8.790;2022-11-20T13:40:50;9.00;;;5.40;;
17251;SDS011;8742;51.716;8.790;2022-11-20T13:43:22;10.37;;;6.37;;
17251;SDS011;8742;51.716;8.790;2022-11-20T13:45:57;9.40;;;6.00;;
17251;SDS011;8742;51.716;8.790;2022-11-20T13:48:26;10.13;;;5.83;;
17251;SDS011;8742;51.716;8.790;2022-11-20T13:50:59;12.30;;;6.80;;
17251;SDS011;8742;51.716;8.790;2022-11-20T13:53:46;8.57;;;5.27;;
17251;SDS011;8742;51.716;8.790;2022-11-20T13:56:33;7.83;;;4.67;;
17251;SDS011;8742;51.716;8.790;2022-11-20T13:59:12;12.20;;;6.27;;
17251;SDS011;8742;51.716;8.790;2022-11-20T14:01:50;14.87;;;6.57;;
17251;SDS011;8742;51.716;8.790;2022-11-20T14:04:19;10.03;;;6.03;;
17251;SDS011;8742;51.716;8.790;2022-11-20T14:06:53;10.87;;;6.13;;
17251;SDS011;8742;51.716;8.790;2022-11-20T14:09:25;9.17;;;5.73;;
17251;SDS011;8742;51.716;8.790;2022-11-20T14:11:52;12.03;;;6.03;;
17251;SDS011;8742;51.716;8.790;2022-11-20T14:14:21;11.47;;;5.70;;
17251;SDS011;8742;51.716;8.790;2022-11-20T14:16:50;12.67;;;6.27;;
17251;SDS011;8742;51.716;8.790;2022-11-20T14:19:23;10.83;;;6.40;;
17251;SDS011;8742;51.716;8.790;2022-11-20T14:21:54;11.37;;;6.53;;
17251;SDS011;8742;51.716;8.790;2022-11-20T14:24:33;10.77;;;6.40;;
17251;SDS011;8742;51.716;8.790;2022-11-20T14:27:00;13.60;;;7.37;;
17251;SDS011;8742;51.716;8.790;2022-11-20T14:29:29;18.50;;;8.93;;
17251;SDS011;8742;51.716;8.790;2022-11-20T14:32:00;12.20;;;7.33;;
17251;SDS011;8742;51.716;8.790;2022-11-20T14:34:29;11.07;;;6.40;;
17251;SDS011;8742;51.716;8.790;2022-11-20T14:36:58;11.73;;;5.97;;
17251;SDS011;8742;51.716;8.790;2022-11-20T14:39:29;10.90;;;6.40;;
17251;SDS011;8742;51.716;8.790;2022-11-20T14:41:58;11.73;;;6.17;;
17251;SDS011;8742;51.716;8.790;2022-11-20T14:44:26;16.00;;;7.00;;
17251;SDS011;8742;51.716;8.790;2022-11-20T14:46:56;18.43;;;8.23;;
17251;SDS011;8742;51.716;8.790;2022-11-20T14:49:24;15.37;;;7.90;;
17251;SDS011;8742;51.716;8.790;2022-11-20T14:51:58;12.07;;;6.13;;
17251;SDS011;8742;51.716;8.790;2022-11-20T14:54:26;11.80;;;6.10;;
17251;SDS011;8742;51.716;8.790;2022-11-20T14:56:54;11.73;;;6.90;;
17251;SDS011;8742;51.716;8.790;2022-11-20T14:59:22;12.67;;;6.60;;
17251;SDS011;8742;51.716;8.790;2022-11-20T15:01:55;12.57;;;5.90;;
17251;SDS011;8742;51.716;8.790;2022-11-20T15:04:23;12.17;;;6.57;;
17251;SDS011;8742;51.716;8.790;2022-11-20T15:06:51;12.17;;;7.17;;
17251;SDS011;8742;51.716;8.790;2022-11-20T15:09:21;14.57;;;6.80;;
17251;SDS011;8742;51.716;8.790;2022-11-20T15:11:52;14.33;;;7.37;;
17251;SDS011;8742;51.716;8.790;2022-11-20T15:14:21;13.70;;;6.97;;
17251;SDS011;8742;51.716;8.790;2022-11-20T15:16:49;13.17;;;6.57;;
17251;SDS011;8742;51.716;8.790;2022-11-20T15:19:18;16.70;;;8.60;;
17251;SDS011;8742;51.716;8.790;2022-11-20T15:21:46;16.20;;;8.17;;
17251;SDS011;8742;51.716;8.790;2022-11-20T15:24:13;17.87;;;8.33;;
17251;SDS011;8742;51.716;8.790;2022-11-20T15:26:40;14.00;;;7.10;;
17251;SDS011;8742;51.716;8.790;2022-11-20T15:29:08;13.60;;;7.80;;
17251;SDS011;8742;51.716;8.790;2022-11-20T15:31:36;15.83;;;7.47;;